Hollywood, FL

8:01 PM EDT on August 31, 2016 (GMT -0400)
ISLAND DR. AREA | | Change Station

Elev 7 ft 25.99 °N, 80.24 °W | Updated 7 seconds ago

Overcast
Overcast
84.0 °F
Feels Like 97 °F
N
7.0
Wind Variable Wind from South
Gusts 9.0 mph

Today
High -- | Low -- °F
--% Chance of Precip.
Yesterday
High -- | Low -- °F
Precip. -- in
Pressure 29.91 in
Visibility 10.0 miles
Clouds Scattered Clouds 1900 ft
Mostly Cloudy 2500 ft
Mostly Cloudy 3500 ft
Mostly Cloudy 15000 ft
Overcast 25000 ft
Heat Index 97 °F
Dew Point 80 °F
Humidity 87%
Rainfall 0.00 in
Snow Depth Not available.
7:00 AM 7:40 PM
Waning Crescent, 0% visible
METAR KFLL 312353Z 17010KT 10SM SCT019 BKN025 BKN035 BKN150 OVC250 28/26 A2991 RMK AO2 SLP128 60007 T02830256 10294 20278 53003
Pressure 29.91 in
Visibility 10.0 miles
Clouds Scattered Clouds 1900 ft
Mostly Cloudy 2500 ft
Mostly Cloudy 3500 ft
Mostly Cloudy 15000 ft
Overcast 25000 ft
Heat Index 97 °F
Dew Point 80 °F
Humidity 87%
Rainfall 0.00 in
Snow Depth Not available.
7:00 AM 7:40 PM
Waning Crescent, 0% visible
METAR KFLL 312353Z 17010KT 10SM SCT019 BKN025 BKN035 BKN150 OVC250 28/26 A2991 RMK AO2 SLP128 60007 T02830256 10294 20278 53003

10-Day Weather Forecast

Almanac

Astronomy

Aug. 31, 2016 Rise Set
Actual Time
Civil Twilight
Nautical Twilight
Astronomical Twilight
Moon
Length of Visible Light
Length of Day
Tomorrow will be .
, % of the Moon is Illuminated

Today's Extremes

State Highs State Lows

Community

WunderPhotos

Upload Photos

1,936,219 photos uploaded!

WunderBlog® & News

Nearby

Air Quality

  Air Quality AQ Index Pollutant
Not available.

Snow Depth

Station Depth Elevation

Earthquake Activity

City Distance Mag. Time & Date
Minimum magnitude displayed is 2.5.

Coastal Water Temperatures

Place Temperature

Stations

Nearby Weather Stations

Station Location Temp. Windchill Dew Point Humidity Wind Precip. Elev Updated Type
                   

Watches & Warnings

There are currently no watches in effect.